createdAt,value
2022-11-02T00:17:39.286Z,101299.97
2022-11-02T00:20:06.509Z,101335.59
2022-11-02T00:22:34.171Z,101331.28
2022-11-02T00:25:04.062Z,101340.63
2022-11-02T00:27:33.826Z,101324.88
2022-11-02T00:30:00.942Z,101340.22
2022-11-02T00:32:27.671Z,101327.44
2022-11-02T00:34:54.062Z,101345.88
2022-11-02T00:37:20.659Z,101310.22
2022-11-02T00:39:47.254Z,101354.34
2022-11-02T00:42:13.826Z,101331.72
2022-11-02T00:44:40.252Z,101331.88
2022-11-02T00:47:12.220Z,101289.94
2022-11-02T00:49:38.891Z,101341.78
2022-11-02T00:52:06.034Z,101312.38
2022-11-02T00:54:32.494Z,101308.50
2022-11-02T00:56:58.924Z,101335.44
2022-11-02T00:59:25.434Z,101344.31
2022-11-02T01:01:51.992Z,101326.78
2022-11-02T01:04:18.529Z,101331.50
2022-11-02T01:06:46.068Z,101328.25
2022-11-02T01:09:14.245Z,101338.16
2022-11-02T01:11:41.935Z,101328.09
2022-11-02T01:14:09.804Z,101310.88
2022-11-02T01:16:36.450Z,101344.72
2022-11-02T01:19:03.206Z,101332.66
2022-11-02T01:21:29.531Z,101352.69
2022-11-02T01:23:56.395Z,101340.22
2022-11-02T01:26:22.803Z,101350.41
2022-11-02T01:28:49.243Z,101333.50
2022-11-02T01:31:15.787Z,101330.91
2022-11-02T01:33:46.350Z,101343.41
2022-11-02T01:36:15.293Z,101353.56
2022-11-02T01:38:41.963Z,101312.56
2022-11-02T01:41:10.611Z,101340.28
2022-11-02T01:43:37.665Z,101324.75
2022-11-02T01:46:15.793Z,101303.25
2022-11-02T01:49:14.498Z,101307.56
2022-11-02T01:51:49.711Z,101332.69
2022-11-02T01:54:21.979Z,101336.75
2022-11-02T01:56:53.771Z,101286.53
2022-11-02T01:59:33.566Z,101306.72
2022-11-02T02:02:00.086Z,101323.94
2022-11-02T02:04:28.127Z,101313.47
2022-11-02T02:06:58.644Z,101312.91
2022-11-02T02:09:26.512Z,101294.97
2022-11-02T02:11:52.941Z,101296.38
2022-11-02T02:14:20.536Z,101321.28
2022-11-02T02:17:21.069Z,101313.66
2022-11-02T02:20:00.227Z,101278.59
2022-11-02T02:22:40.667Z,101310.81
2022-11-02T02:25:44.093Z,101302.06
2022-11-02T02:28:29.189Z,101304.72
2022-11-02T02:31:00.755Z,101288.16
2022-11-02T02:33:35.847Z,101307.84
2022-11-02T02:36:25.908Z,101303.81
2022-11-02T02:39:05.530Z,101306.91
2022-11-02T02:41:39.983Z,101306.69
2022-11-02T02:44:15.559Z,101273.53
2022-11-02T02:47:13.842Z,101298.59
2022-11-02T02:49:53.728Z,101297.09
2022-11-02T02:52:21.768Z,101292.28
2022-11-02T02:54:50.883Z,101286.44
2022-11-02T02:57:20.606Z,101297.78
2022-11-02T02:59:48.888Z,101265.22
2022-11-02T03:02:32.840Z,101303.25
2022-11-02T03:04:59.596Z,101280.81
2022-11-02T03:07:33.888Z,101291.47
2022-11-02T03:10:17.021Z,101272.47
2022-11-02T03:12:59.617Z,101282.78
2022-11-02T03:16:05.076Z,101297.34
2022-11-02T03:19:00.665Z,101287.16
2022-11-02T03:21:36.403Z,101284.34
2022-11-02T03:24:13.533Z,101299.56
2022-11-02T03:27:10.495Z,101289.34
2022-11-02T03:29:52.882Z,101285.47
2022-11-02T03:32:39.111Z,101268.31
2022-11-02T03:35:15.793Z,101277.75
2022-11-02T03:37:49.461Z,101290.47
2022-11-02T03:40:37.798Z,101274.66
2022-11-02T03:43:05.812Z,101268.41
2022-11-02T03:45:39.069Z,101256.66
2022-11-02T03:48:08.229Z,101277.03
2022-11-02T03:50:37.729Z,101273.88
2022-11-02T03:53:10.387Z,101292.22
2022-11-02T03:55:45.136Z,101306.13
2022-11-02T03:58:12.385Z,101282.00
2022-11-02T04:00:47.077Z,101293.78
2022-11-02T04:03:13.959Z,101274.56
2022-11-02T04:05:40.377Z,101277.59
2022-11-02T04:08:20.962Z,101280.69
2022-11-02T04:11:07.644Z,101273.81
2022-11-02T04:13:53.217Z,101279.34
2022-11-02T04:16:25.065Z,101289.38
2022-11-02T04:19:13.128Z,101289.50
2022-11-02T04:21:39.639Z,101281.91
2022-11-02T04:24:25.252Z,101282.31
2022-11-02T04:26:51.741Z,101289.47
2022-11-02T04:29:18.259Z,101272.44
2022-11-02T04:31:44.730Z,101282.47
2022-11-02T04:34:11.175Z,101281.47
2022-11-02T04:36:37.725Z,101285.34
2022-11-02T04:39:04.181Z,101283.84
2022-11-02T04:41:42.824Z,101278.69
2022-11-02T04:44:14.526Z,101311.25
2022-11-02T04:46:42.738Z,101273.38
2022-11-02T04:49:10.428Z,101298.59
2022-11-02T04:51:37.769Z,101303.25
2022-11-02T04:54:04.342Z,101291.09
2022-11-02T04:56:30.888Z,101278.06
2022-11-02T04:59:32.191Z,101253.50
2022-11-02T05:01:58.819Z,101241.41
2022-11-02T05:04:53.605Z,101296.47
2022-11-02T05:07:24.899Z,101256.53
2022-11-02T05:13:32.237Z,101298.78
2022-11-02T05:15:59.321Z,101294.66
2022-11-02T05:18:27.886Z,101264.16
2022-11-02T05:20:57.095Z,101284.00
2022-11-02T05:23:23.887Z,101286.19
2022-11-02T05:25:53.799Z,101307.97
2022-11-02T05:28:20.555Z,101304.94
2022-11-02T05:30:46.930Z,101295.38
2022-11-02T05:33:13.387Z,101286.47
2022-11-02T05:35:40.141Z,101291.28
2022-11-02T05:38:06.524Z,101293.50
2022-11-02T05:40:33.839Z,101296.31
2022-11-02T05:43:01.431Z,101293.88
2022-11-02T05:45:28.187Z,101301.03
2022-11-02T05:47:54.673Z,101282.84
2022-11-02T05:50:21.871Z,101281.59
2022-11-02T05:52:48.351Z,101276.38
2022-11-02T05:55:14.775Z,101281.28
2022-11-02T05:57:41.256Z,101266.19
2022-11-02T06:00:08.786Z,101285.72
2022-11-02T06:02:35.182Z,101287.69
2022-11-02T06:05:01.677Z,101287.19
2022-11-02T06:07:30.535Z,101300.13
2022-11-02T06:09:56.955Z,101277.69
2022-11-02T06:12:49.522Z,101277.06
2022-11-02T06:15:27.860Z,101274.38
2022-11-02T06:17:54.947Z,101249.91
2022-11-02T06:20:30.989Z,101260.34
2022-11-02T06:23:00.189Z,101305.47
2022-11-02T06:25:28.973Z,101298.19
2022-11-02T06:28:07.345Z,101249.56
2022-11-02T06:30:34.845Z,101299.41
2022-11-02T06:33:06.982Z,101282.34
2022-11-02T06:35:39.049Z,101271.06
2022-11-02T06:46:00.113Z,101278.69
2022-11-02T06:48:34.211Z,101273.44
2022-11-02T06:51:03.570Z,101300.41
2022-11-02T07:01:07.936Z,101329.91
2022-11-02T07:03:35.560Z,101286.97
2022-11-02T07:06:02.630Z,101315.84
2022-11-02T07:08:29.676Z,101306.66
2022-11-02T07:11:19.319Z,101315.66
2022-11-02T08:36:18.232Z,101350.47
2022-11-02T08:53:54.698Z,101300.50
2022-11-02T09:31:39.154Z,101336.34
2022-11-02T09:34:11.038Z,101290.09
2022-11-02T09:44:28.574Z,101327.75
2022-11-02T09:47:48.995Z,101353.06
2022-11-02T09:57:31.735Z,101353.22
2022-11-02T10:00:14.041Z,101356.22
2022-11-02T10:03:00.494Z,101362.91
2022-11-02T10:25:58.993Z,101357.84
2022-11-02T10:37:06.950Z,101348.53
2022-11-02T10:40:16.333Z,101355.66
2022-11-02T10:43:24.936Z,101347.16
2022-11-02T10:50:52.521Z,101368.59
2022-11-02T11:05:14.861Z,101315.13
2022-11-02T11:23:19.196Z,101350.03
2022-11-02T11:57:53.997Z,101331.09
2022-11-02T13:03:17.142Z,101325.72
2022-11-02T13:45:03.919Z,101371.63
2022-11-02T13:52:13.894Z,101412.53
2022-11-02T13:54:46.746Z,101366.47
2022-11-02T18:05:30.302Z,101599.91
